Time,TemperatureF,DewpointF,PressureIn,WindDirection,WindDirectionDegrees,WindSpeedMPH,WindSpeedGustMPH,Humidity,HourlyPrecipIn,Conditions,Clouds,dailyrainin,SoftwareType,DateUTC
2013-08-23 00:13:00,70.0,69.0,30.01,ENE,65,0.0,0.0,98,0.00,,,0.22,,2013-08-23 05:13:00,
2013-08-23 00:22:00,70.0,69.0,30.01,ENE,65,0.0,1.0,98,0.00,,,0.22,,2013-08-23 05:22:00,
2013-08-23 00:42:00,70.0,69.0,30.00,ENE,65,0.0,0.0,98,0.00,,,0.22,,2013-08-23 05:42:00,
2013-08-23 00:53:00,70.0,69.0,30.00,ENE,65,0.0,0.0,98,0.00,,,0.22,,2013-08-23 05:53:00,
2013-08-23 01:12:00,70.0,69.0,30.01,ENE,65,0.0,0.0,98,0.00,,,0.22,,2013-08-23 06:12:00,
2013-08-23 01:22:00,69.0,68.0,30.00,ENE,65,0.0,0.0,98,0.00,,,0.22,,2013-08-23 06:22:00,
2013-08-23 01:42:00,69.0,69.0,30.00,ENE,65,0.0,0.0,99,0.00,,,0.22,,2013-08-23 06:42:00,
2013-08-23 01:52:00,69.0,68.0,29.99,ENE,65,0.0,0.0,98,0.00,,,0.22,,2013-08-23 06:52:00,
2013-08-23 02:12:00,69.0,69.0,29.99,ENE,65,0.0,0.0,99,0.01,,,0.23,,2013-08-23 07:12:00,
2013-08-23 02:22:00,69.0,69.0,29.98,ENE,65,0.0,0.0,99,0.01,,,0.23,,2013-08-23 07:22:00,
2013-08-23 02:53:00,69.0,69.0,29.98,ENE,65,0.0,0.0,99,0.01,,,0.23,,2013-08-23 07:53:00,
2013-08-23 03:13:00,69.0,69.0,29.98,ENE,65,0.0,0.0,99,0.00,,,0.23,,2013-08-23 08:13:00,
2013-08-23 03:22:00,69.0,69.0,29.98,ENE,65,0.0,0.0,99,0.00,,,0.23,,2013-08-23 08:22:00,
2013-08-23 03:42:00,69.0,69.0,29.98,ENE,65,0.0,0.0,99,0.00,,,0.23,,2013-08-23 08:42:00,
2013-08-23 03:52:00,69.0,69.0,29.98,ENE,65,0.0,0.0,99,0.00,,,0.23,,2013-08-23 08:52:00,
2013-08-23 04:12:00,68.0,68.0,29.98,ENE,67,0.0,0.0,99,0.00,,,0.23,,2013-08-23 09:12:00,
2013-08-23 04:21:00,68.0,68.0,29.98,ENE,66,0.0,0.0,99,0.00,,,0.23,,2013-08-23 09:21:00,
2013-08-23 04:43:00,68.0,68.0,29.98,ENE,67,0.0,0.0,99,0.00,,,0.23,,2013-08-23 09:43:00,
2013-08-23 04:53:00,68.0,68.0,29.98,ENE,67,0.0,0.0,99,0.00,,,0.23,,2013-08-23 09:53:00,
2013-08-23 05:13:00,68.0,68.0,29.98,ENE,66,0.0,0.0,99,0.00,,,0.23,,2013-08-23 10:13:00,
2013-08-23 05:23:00,68.0,68.0,29.98,ENE,67,0.0,0.0,99,0.00,,,0.23,,2013-08-23 10:23:00,
2013-08-23 05:42:00,68.0,68.0,29.98,ENE,66,0.0,0.0,99,0.00,,,0.23,,2013-08-23 10:42:00,
2013-08-23 05:53:00,68.0,68.0,29.98,ENE,67,0.0,0.0,99,0.00,,,0.23,,2013-08-23 10:53:00,
2013-08-23 06:11:00,68.0,68.0,29.98,ENE,66,0.0,0.0,99,0.00,,,0.23,,2013-08-23 11:11:00,
2013-08-23 06:22:00,68.0,68.0,29.98,ENE,67,0.0,0.0,99,0.00,,,0.22,,2013-08-23 11:22:00,
2013-08-23 06:42:00,68.0,68.0,29.98,ENE,66,0.0,0.0,99,0.00,,,0.22,,2013-08-23 11:42:00,
2013-08-23 06:53:00,68.0,68.0,29.98,ENE,67,0.0,0.0,99,0.00,,,0.22,,2013-08-23 11:53:00,
2013-08-23 07:11:00,68.0,68.0,29.98,ENE,66,0.0,0.0,99,0.00,,,0.22,,2013-08-23 12:11:00,
2013-08-23 07:22:00,69.0,69.0,29.98,ENE,67,0.0,0.0,99,0.00,,,0.22,,2013-08-23 12:22:00,
2013-08-23 07:42:00,71.0,71.0,29.99,ENE,68,0.0,0.0,99,0.00,,,0.22,,2013-08-23 12:42:00,
2013-08-23 07:52:00,70.0,70.0,30.00,ENE,68,0.0,1.0,99,0.00,,,0.22,,2013-08-23 12:52:00,
2013-08-23 08:12:00,72.0,72.0,30.00,East,82,0.0,2.0,99,0.00,,,0.22,,2013-08-23 13:12:00,
2013-08-23 08:22:00,73.0,72.0,30.00,East,79,0.0,2.0,98,0.00,,,0.22,,2013-08-23 13:22:00,
2013-08-23 08:42:00,75.0,74.0,30.00,East,79,0.0,2.0,96,0.00,,,0.22,,2013-08-23 13:42:00,
2013-08-23 08:53:00,76.0,74.0,30.01,East,83,0.0,3.0,92,0.00,,,0.22,,2013-08-23 13:53:00,
2013-08-23 09:12:00,77.0,74.0,30.01,East,89,0.0,4.0,92,0.00,,,0.22,,2013-08-23 14:12:00,
2013-08-23 09:22:00,77.0,74.0,30.01,ENE,65,1.0,5.0,89,0.00,,,0.22,,2013-08-23 14:22:00,
2013-08-23 09:42:00,78.0,74.0,30.01,East,86,0.0,4.0,87,0.00,,,0.22,,2013-08-23 14:42:00,
2013-08-23 09:52:00,79.0,74.0,30.02,NE,52,1.0,5.0,85,0.00,,,0.22,,2013-08-23 14:52:00,
2013-08-23 10:11:00,80.0,74.0,30.01,ENE,77,1.0,2.0,82,0.00,,,0.22,,2013-08-23 15:11:00,
2013-08-23 10:22:00,81.0,75.0,30.01,East,81,0.0,5.0,82,0.00,,,0.22,,2013-08-23 15:22:00,
2013-08-23 10:44:00,81.0,73.0,30.01,East,99,2.0,5.0,78,0.00,,,0.22,,2013-08-23 15:44:00,
2013-08-23 10:54:00,82.0,73.0,30.01,ENE,70,2.0,5.0,74,0.00,,,0.22,,2013-08-23 15:54:00,
2013-08-23 11:14:00,82.0,74.0,30.01,NNE,18,1.0,4.0,78,0.00,,,0.22,,2013-08-23 16:14:00,
2013-08-23 11:24:00,82.0,74.0,30.01,East,82,2.0,3.0,76,0.00,,,0.22,,2013-08-23 16:24:00,
2013-08-23 11:42:00,83.0,75.0,30.01,East,94,1.0,4.0,78,0.00,,,0.22,,2013-08-23 16:42:00,
2013-08-23 11:53:00,83.0,73.0,30.01,NE,55,1.0,5.0,73,0.00,,,0.22,,2013-08-23 16:53:00,
2013-08-23 12:13:00,83.0,73.0,30.01,ENE,64,2.0,5.0,73,0.00,,,0.22,,2013-08-23 17:13:00,
2013-08-23 12:24:00,84.0,74.0,30.00,SSW,210,0.0,4.0,72,0.00,,,0.22,,2013-08-23 17:24:00,
2013-08-23 12:43:00,84.0,74.0,29.99,SE,130,1.0,4.0,72,0.00,,,0.22,,2013-08-23 17:43:00,
2013-08-23 12:54:00,84.0,74.0,29.99,ENE,73,0.0,4.0,73,0.00,,,0.22,,2013-08-23 17:54:00,
2013-08-23 13:12:00,84.0,74.0,29.99,ENE,65,2.0,6.0,71,0.00,,,0.22,,2013-08-23 18:12:00,
2013-08-23 13:22:00,84.0,74.0,29.98,ENE,60,2.0,4.0,71,0.00,,,0.22,,2013-08-23 18:22:00,
2013-08-23 13:42:00,85.0,75.0,29.98,ENE,77,2.0,5.0,73,0.00,,,0.22,,2013-08-23 18:42:00,
2013-08-23 13:52:00,85.0,75.0,29.98,NNE,14,0.0,4.0,73,0.00,,,0.22,,2013-08-23 18:52:00,
2013-08-23 14:12:00,86.0,75.0,29.97,ENE,64,0.0,6.0,69,0.00,,,0.22,,2013-08-23 19:12:00,
2013-08-23 14:22:00,86.0,76.0,29.97,East,80,0.0,4.0,73,0.00,,,0.22,,2013-08-23 19:22:00,
2013-08-23 14:42:00,87.0,75.0,29.97,SE,145,1.0,5.0,67,0.00,,,0.22,,2013-08-23 19:42:00,
2013-08-23 14:52:00,86.0,74.0,29.96,East,84,0.0,6.0,68,0.00,,,0.22,,2013-08-23 19:52:00,
2013-08-23 15:12:00,86.0,77.0,29.96,ENE,77,0.0,2.0,74,0.00,,,0.22,,2013-08-23 20:12:00,
2013-08-23 15:22:00,84.0,75.0,29.96,ENE,68,1.0,3.0,74,0.00,,,0.02,,2013-08-23 20:22:00,
2013-08-23 15:42:00,85.0,75.0,29.96,SSE,149,0.0,3.0,72,0.00,,,0.02,,2013-08-23 20:42:00,
2013-08-23 15:52:00,86.0,75.0,29.96,SE,131,0.0,3.0,70,0.00,,,0.02,,2013-08-23 20:52:00,
2013-08-23 16:11:00,85.0,73.0,29.96,SE,136,2.0,4.0,67,0.00,,,0.02,,2013-08-23 21:11:00,
2013-08-23 16:22:00,86.0,75.0,29.96,NNE,33,0.0,3.0,69,0.00,,,0.02,,2013-08-23 21:22:00,
2013-08-23 16:44:00,85.0,74.0,29.96,SW,214,0.0,2.0,69,0.00,,,0.02,,2013-08-23 21:44:00,
2013-08-23 16:54:00,85.0,76.0,29.95,ESE,122,0.0,3.0,75,0.00,,,0.02,,2013-08-23 21:54:00,
2013-08-23 17:13:00,84.0,76.0,29.94,ESE,120,0.0,1.0,77,0.00,,,0.02,,2013-08-23 22:13:00,
2013-08-23 17:24:00,84.0,74.0,29.94,SSW,206,0.0,2.0,73,0.00,,,0.01,,2013-08-23 22:24:00,
2013-08-23 17:43:00,83.0,77.0,29.94,SW,228,0.0,0.0,81,0.00,,,0.01,,2013-08-23 22:43:00,
2013-08-23 17:53:00,81.0,76.0,29.94,SW,229,0.0,0.0,85,0.00,,,0.01,,2013-08-23 22:53:00,
2013-08-23 18:12:00,80.0,75.0,29.94,SW,228,0.0,0.0,86,0.00,,,0.01,,2013-08-23 23:12:00,
2013-08-23 18:22:00,80.0,74.0,29.95,SE,136,2.0,7.0,81,0.00,,,0.01,,2013-08-23 23:22:00,
2013-08-23 18:43:00,78.0,72.0,29.95,ESE,105,0.0,5.0,82,0.00,,,0.01,,2013-08-23 23:43:00,
2013-08-23 18:54:00,77.0,72.0,29.94,WNW,283,0.0,3.0,84,0.00,,,0.01,,2013-08-23 23:54:00,
2013-08-23 19:11:00,76.0,72.0,29.94,West,277,0.0,2.0,86,0.00,,,0.01,,2013-08-24 00:11:00,
2013-08-23 19:22:00,76.0,72.0,29.95,SE,136,0.0,1.0,87,0.00,,,0.01,,2013-08-24 00:22:00,
2013-08-23 19:43:00,75.0,72.0,29.96,SW,235,0.0,2.0,89,0.00,,,0.01,,2013-08-24 00:43:00,
2013-08-23 19:53:00,74.0,72.0,29.96,SW,233,0.0,0.0,92,0.00,,,0.01,,2013-08-24 00:53:00,
2013-08-23 20:11:00,73.0,71.0,29.96,SW,235,0.0,0.0,93,0.00,,,0.01,,2013-08-24 01:11:00,
2013-08-23 20:22:00,73.0,71.0,29.96,SW,235,0.0,0.0,94,0.00,,,0.01,,2013-08-24 01:22:00,
2013-08-23 20:42:00,72.0,70.0,29.96,SW,235,0.0,0.0,95,0.00,,,0.01,,2013-08-24 01:42:00,
2013-08-23 20:53:00,72.0,70.0,29.97,SW,235,0.0,0.0,95,0.00,,,0.01,,2013-08-24 01:53:00,
2013-08-23 21:12:00,72.0,71.0,29.97,SW,235,0.0,0.0,96,0.00,,,0.01,,2013-08-24 02:12:00,
2013-08-23 21:22:00,72.0,71.0,29.98,SW,235,0.0,0.0,96,0.00,,,0.01,,2013-08-24 02:22:00,
2013-08-23 21:42:00,72.0,71.0,29.99,SW,235,0.0,0.0,96,0.00,,,0.01,,2013-08-24 02:42:00,
2013-08-23 21:52:00,72.0,71.0,30.00,SW,235,0.0,0.0,97,0.00,,,0.01,,2013-08-24 02:52:00,
2013-08-23 22:12:00,71.0,70.0,30.01,SW,233,0.0,0.0,97,0.00,,,0.01,,2013-08-24 03:12:00,
2013-08-23 22:22:00,71.0,70.0,30.00,SW,235,0.0,1.0,97,0.00,,,0.01,,2013-08-24 03:22:00,
2013-08-23 22:44:00,71.0,70.0,30.01,SW,219,0.0,1.0,97,0.00,,,0.01,,2013-08-24 03:44:00,
2013-08-23 22:55:00,71.0,70.0,30.01,South,174,0.0,1.0,97,0.00,,,0.01,,2013-08-24 03:55:00,
2013-08-23 23:14:00,71.0,70.0,30.01,South,177,0.0,0.0,97,0.00,,,0.01,,2013-08-24 04:14:00,
2013-08-23 23:24:00,71.0,70.0,30.01,South,177,0.0,0.0,97,0.00,,,0.01,,2013-08-24 04:24:00,
2013-08-23 23:44:00,71.0,70.0,30.01,South,177,0.0,0.0,97,0.00,,,0.01,,2013-08-24 04:44:00,
2013-08-23 23:54:00,70.0,69.0,30.01,South,177,0.0,0.0,97,0.00,,,0.01,,2013-08-24 04:54:00,